createdAt,value
2023-05-05T00:02:10.276Z,8.83
2023-05-05T00:04:38.071Z,21.30
2023-05-05T00:07:05.892Z,10.63
2023-05-05T00:09:33.455Z,9.13
2023-05-05T00:12:01.488Z,8.17
2023-05-05T00:14:29.093Z,9.00
2023-05-05T00:16:57.061Z,13.77
2023-05-05T00:19:24.697Z,15.40
2023-05-05T00:21:52.631Z,10.33
2023-05-05T00:24:20.213Z,14.57
2023-05-05T00:26:48.141Z,10.30
2023-05-05T00:29:15.816Z,15.20
2023-05-05T00:31:43.705Z,11.10
2023-05-05T00:34:11.761Z,11.57
2023-05-05T00:36:40.093Z,14.10
2023-05-05T00:39:07.711Z,10.90
2023-05-05T00:41:35.614Z,10.77
2023-05-05T00:44:03.759Z,10.20
2023-05-05T00:46:34.066Z,7.10
2023-05-05T00:49:02.092Z,11.10
2023-05-05T00:51:30.116Z,11.20
2023-05-05T00:53:57.545Z,9.43
2023-05-05T00:56:27.500Z,11.00
2023-05-05T00:58:55.625Z,10.27
2023-05-05T01:01:23.941Z,9.27
2023-05-05T01:03:51.804Z,10.33
2023-05-05T01:06:42.019Z,10.40
2023-05-05T01:09:14.957Z,9.10
2023-05-05T01:11:51.779Z,9.80
2023-05-05T01:14:33.203Z,9.83
2023-05-05T01:17:08.192Z,11.97
2023-05-05T01:20:02.088Z,9.80
2023-05-05T01:22:38.394Z,11.60
2023-05-05T01:25:14.646Z,12.27
2023-05-05T01:27:56.061Z,9.33
2023-05-05T01:30:35.617Z,11.17
2023-05-05T01:33:08.441Z,9.73
2023-05-05T01:35:44.000Z,9.53
2023-05-05T01:38:30.484Z,14.07
2023-05-05T01:41:12.801Z,11.73
2023-05-05T01:43:44.002Z,7.97
2023-05-05T01:46:13.370Z,10.97
2023-05-05T01:48:44.303Z,11.27
2023-05-05T01:51:13.252Z,8.90
2023-05-05T01:53:41.802Z,8.67
2023-05-05T01:56:11.867Z,7.53
2023-05-05T01:58:41.845Z,9.83
2023-05-05T02:01:10.487Z,14.80
2023-05-05T02:03:39.231Z,10.57
2023-05-05T02:06:08.554Z,9.53
2023-05-05T02:08:39.502Z,10.80
2023-05-05T02:11:09.237Z,12.33
2023-05-05T02:13:40.153Z,7.37
2023-05-05T02:16:08.506Z,8.27
2023-05-05T02:18:36.866Z,9.67
2023-05-05T02:21:04.656Z,6.90
2023-05-05T02:23:33.565Z,6.43
2023-05-05T02:26:06.224Z,9.20
2023-05-05T02:28:55.796Z,7.23
2023-05-05T02:31:26.463Z,8.97
2023-05-05T02:33:57.194Z,11.90
2023-05-05T02:36:28.744Z,7.77
2023-05-05T02:39:19.837Z,8.93
2023-05-05T02:41:49.723Z,9.63
2023-05-05T02:44:26.234Z,9.70
2023-05-05T02:46:55.012Z,9.33
2023-05-05T02:49:24.563Z,9.37
2023-05-05T02:51:58.182Z,8.13
2023-05-05T02:54:33.289Z,10.53
2023-05-05T02:57:04.111Z,7.70
2023-05-05T02:59:42.494Z,10.43
2023-05-05T03:02:15.214Z,10.53
2023-05-05T03:04:48.770Z,7.83
2023-05-05T03:07:25.197Z,10.47
2023-05-05T03:10:32.309Z,10.77
2023-05-05T03:13:05.001Z,9.43
2023-05-05T03:15:43.128Z,9.30
2023-05-05T03:18:12.449Z,13.90
2023-05-05T03:20:44.968Z,7.43
2023-05-05T03:23:15.620Z,13.53
2023-05-05T03:25:46.434Z,9.87
2023-05-05T03:28:33.661Z,8.80
2023-05-05T03:31:07.190Z,6.87
2023-05-05T03:33:38.148Z,6.50
2023-05-05T03:36:06.816Z,9.63
2023-05-05T03:38:35.405Z,9.30
2023-05-05T03:41:03.929Z,6.67
2023-05-05T03:43:32.775Z,5.67
2023-05-05T03:46:00.901Z,9.53
2023-05-05T03:48:28.899Z,7.70
2023-05-05T03:50:57.014Z,12.00
2023-05-05T03:53:27.229Z,12.87
2023-05-05T03:55:55.674Z,11.33
2023-05-05T03:58:22.970Z,7.37
2023-05-05T04:00:50.596Z,10.47
2023-05-05T04:03:20.249Z,10.33
2023-05-05T04:05:48.774Z,8.27
2023-05-05T04:08:16.424Z,8.20
2023-05-05T04:10:44.307Z,7.70
2023-05-05T04:13:12.066Z,7.60
2023-05-05T04:15:45.199Z,10.47
2023-05-05T04:18:13.523Z,10.77
2023-05-05T04:20:42.045Z,7.57
2023-05-05T04:23:10.989Z,12.43
2023-05-05T04:25:39.818Z,10.07
2023-05-05T04:28:07.667Z,7.70
2023-05-05T04:30:35.778Z,15.13
2023-05-05T04:33:03.404Z,10.07
2023-05-05T04:35:31.815Z,7.57
2023-05-05T04:37:59.912Z,9.97
2023-05-05T04:40:28.794Z,6.80
2023-05-05T04:42:58.331Z,7.70
2023-05-05T04:45:29.420Z,8.97
2023-05-05T04:47:57.380Z,7.27
2023-05-05T04:50:25.691Z,9.00
2023-05-05T04:52:53.618Z,7.13
2023-05-05T04:55:21.692Z,9.50
2023-05-05T04:57:49.632Z,9.33
2023-05-05T05:00:17.880Z,11.37
2023-05-05T05:02:46.114Z,8.13
2023-05-05T05:05:14.150Z,7.63
2023-05-05T05:07:43.079Z,9.23
2023-05-05T05:10:11.383Z,8.20
2023-05-05T05:12:39.196Z,17.43
2023-05-05T05:15:07.600Z,17.70
2023-05-05T05:17:35.284Z,9.77
2023-05-05T05:20:05.143Z,9.97
2023-05-05T05:22:35.665Z,11.73
2023-05-05T05:25:06.509Z,16.90
2023-05-05T05:27:34.312Z,11.43
2023-05-05T05:30:02.287Z,6.80
2023-05-05T05:32:31.948Z,8.97
2023-05-05T05:35:00.452Z,10.00
2023-05-05T05:37:31.700Z,11.57
2023-05-05T05:40:01.300Z,7.30
2023-05-05T05:42:32.223Z,13.93
2023-05-05T05:45:00.551Z,9.03
2023-05-05T05:47:28.327Z,7.67
2023-05-05T05:49:57.397Z,10.43
2023-05-05T05:52:25.560Z,13.83
2023-05-05T05:54:53.921Z,12.10
2023-05-05T05:57:22.599Z,10.10
2023-05-05T05:59:51.047Z,12.47
2023-05-05T06:02:19.293Z,9.43
2023-05-05T06:04:48.124Z,17.67
2023-05-05T06:07:16.537Z,12.77
2023-05-05T06:09:44.890Z,13.00
2023-05-05T06:12:12.501Z,20.20
2023-05-05T06:14:41.966Z,10.13
2023-05-05T06:17:12.980Z,14.17
2023-05-05T06:19:42.293Z,9.30
2023-05-05T06:22:10.208Z,14.77
2023-05-05T06:24:38.312Z,13.93
2023-05-05T06:27:05.718Z,13.30
2023-05-05T06:29:33.378Z,7.77
2023-05-05T06:32:01.464Z,11.50
2023-05-05T06:34:29.360Z,8.13
2023-05-05T06:36:56.889Z,7.43
2023-05-05T06:39:24.616Z,13.33
2023-05-05T06:41:52.085Z,12.13
2023-05-05T06:44:19.945Z,11.80
2023-05-05T06:46:47.772Z,8.03
2023-05-05T06:49:15.625Z,7.80
2023-05-05T06:51:43.486Z,10.77
2023-05-05T06:54:11.214Z,8.70
2023-05-05T06:56:38.816Z,12.90
2023-05-05T06:59:06.557Z,11.93
2023-05-05T07:01:34.075Z,12.93
2023-05-05T07:04:01.919Z,9.80
2023-05-05T07:06:29.432Z,42.70
2023-05-05T07:08:57.987Z,22.63
2023-05-05T07:11:25.806Z,9.00
2023-05-05T07:13:53.596Z,8.57
2023-05-05T07:16:21.197Z,6.63
2023-05-05T07:18:49.297Z,10.93
2023-05-05T07:21:16.823Z,7.00
2023-05-05T07:23:46.318Z,7.83
2023-05-05T07:26:15.257Z,8.10
2023-05-05T07:28:44.112Z,8.43
2023-05-05T07:31:11.500Z,14.80
2023-05-05T07:33:39.229Z,12.47
2023-05-05T07:36:06.707Z,7.27
2023-05-05T07:38:34.671Z,7.27
2023-05-05T07:41:02.446Z,9.50
2023-05-05T07:43:30.611Z,7.47
2023-05-05T07:45:58.402Z,8.33
2023-05-05T07:48:26.302Z,12.00
2023-05-05T07:50:54.940Z,8.33
2023-05-05T07:53:22.757Z,8.03
2023-05-05T07:55:50.431Z,18.97
2023-05-05T07:58:18.805Z,9.83
2023-05-05T08:00:46.218Z,8.87
2023-05-05T08:03:13.906Z,10.40
2023-05-05T08:05:41.324Z,9.30
2023-05-05T08:08:08.985Z,6.50
2023-05-05T08:10:36.236Z,9.77
2023-05-05T08:13:04.506Z,7.78
2023-05-05T08:15:31.861Z,11.05
2023-05-05T08:17:59.322Z,13.10
2023-05-05T08:20:28.953Z,8.65
2023-05-05T08:22:56.484Z,11.13
2023-05-05T08:25:24.290Z,13.95
2023-05-05T08:27:51.677Z,53.53
2023-05-05T08:30:21.049Z,12.55
2023-05-05T08:32:48.992Z,10.95
2023-05-05T08:35:16.356Z,11.35
2023-05-05T08:37:43.924Z,44.08
2023-05-05T08:40:14.735Z,22.90
2023-05-05T08:42:42.715Z,6.97
2023-05-05T08:45:11.633Z,16.33
2023-05-05T08:47:40.265Z,11.68
2023-05-05T08:50:11.069Z,11.70
2023-05-05T08:52:45.675Z,10.33
2023-05-05T08:55:24.743Z,9.30
2023-05-05T08:57:57.971Z,23.83
2023-05-05T09:00:29.461Z,12.03
2023-05-05T09:02:59.339Z,10.33
2023-05-05T09:05:27.793Z,122.00
2023-05-05T09:07:55.939Z,9.33
2023-05-05T09:10:24.822Z,8.27
2023-05-05T09:12:53.129Z,11.17
2023-05-05T09:15:21.037Z,6.53
2023-05-05T09:17:48.750Z,9.60
2023-05-05T09:20:16.941Z,6.23
2023-05-05T09:22:46.870Z,13.07
2023-05-05T09:25:16.337Z,12.73
2023-05-05T09:27:47.528Z,19.17
2023-05-05T09:30:17.886Z,9.67
2023-05-05T09:32:46.741Z,10.20
2023-05-05T09:35:14.780Z,7.90
2023-05-05T09:37:42.804Z,10.93
2023-05-05T09:40:11.052Z,11.52
2023-05-05T09:42:40.079Z,8.83
2023-05-05T09:45:19.703Z,7.20
2023-05-05T09:47:48.279Z,13.57
2023-05-05T09:50:18.992Z,8.82
2023-05-05T09:53:01.184Z,10.93
2023-05-05T09:55:29.195Z,7.75
2023-05-05T09:57:56.845Z,6.10
2023-05-05T10:00:38.950Z,8.30
2023-05-05T10:03:06.911Z,18.05
2023-05-05T10:05:47.425Z,18.92
2023-05-05T10:08:15.081Z,13.23
2023-05-05T10:10:52.591Z,25.13
2023-05-05T10:13:22.462Z,6.13
2023-05-05T10:15:52.411Z,6.35
2023-05-05T10:18:22.253Z,38.85
2023-05-05T10:21:02.296Z,9.05
2023-05-05T10:23:55.181Z,16.20
2023-05-05T10:26:23.489Z,11.50
2023-05-05T10:28:55.745Z,7.40
2023-05-05T10:31:49.306Z,10.07
2023-05-05T10:34:41.012Z,17.38
2023-05-05T10:37:08.768Z,10.05
2023-05-05T10:39:38.033Z,10.75
2023-05-05T10:42:05.343Z,16.58
2023-05-05T10:44:34.014Z,10.63
2023-05-05T10:47:03.331Z,8.55
2023-05-05T10:50:09.810Z,7.95
2023-05-05T10:53:19.109Z,17.48
2023-05-05T10:55:54.830Z,12.27
2023-05-05T10:58:59.263Z,11.32
2023-05-05T11:01:33.432Z,47.88
2023-05-05T11:04:24.084Z,20.02
2023-05-05T11:07:12.708Z,96.40
2023-05-05T11:09:56.499Z,53.88
2023-05-05T11:12:24.412Z,69.30
2023-05-05T11:15:31.839Z,25.98
2023-05-05T11:18:03.931Z,22.13
2023-05-05T11:21:00.012Z,27.63
2023-05-05T11:23:29.296Z,37.70
2023-05-05T11:26:00.444Z,14.70
2023-05-05T11:28:31.240Z,25.07
2023-05-05T11:31:00.029Z,22.57
2023-05-05T11:33:40.460Z,33.53
2023-05-05T11:36:12.301Z,35.03
2023-05-05T11:38:52.519Z,12.52
2023-05-05T11:41:32.265Z,15.10
2023-05-05T11:44:14.541Z,15.97
2023-05-05T11:47:05.008Z,13.73
2023-05-05T11:49:37.761Z,12.20
2023-05-05T11:52:10.625Z,21.20
2023-05-05T11:54:47.996Z,20.50
2023-05-05T11:57:17.785Z,15.48
2023-05-05T11:59:57.240Z,44.20
2023-05-05T12:02:31.361Z,15.43
2023-05-05T12:05:01.447Z,12.07
2023-05-05T12:07:31.208Z,18.90
2023-05-05T12:09:59.640Z,17.52
2023-05-05T12:12:36.357Z,15.20
2023-05-05T12:15:06.552Z,7.75
2023-05-05T12:17:42.616Z,31.23
2023-05-05T12:20:12.418Z,18.55
2023-05-05T12:22:40.855Z,17.50
2023-05-05T12:25:09.708Z,18.85
2023-05-05T12:27:37.255Z,42.78
2023-05-05T12:30:16.761Z,16.38
2023-05-05T12:32:45.332Z,46.25
2023-05-05T12:35:13.882Z,14.73
2023-05-05T12:37:42.620Z,44.85
2023-05-05T12:40:44.243Z,18.63
2023-05-05T12:43:33.666Z,73.05
2023-05-05T12:46:13.146Z,35.65
2023-05-05T12:48:46.410Z,19.98
2023-05-05T12:51:23.511Z,16.75
2023-05-05T12:54:11.951Z,10.98
2023-05-05T12:56:42.009Z,22.45
2023-05-05T12:59:12.614Z,35.45
2023-05-05T13:01:53.943Z,19.50
2023-05-05T13:04:23.481Z,19.63
2023-05-05T13:07:13.092Z,14.88
2023-05-05T13:09:41.275Z,5.82
2023-05-05T13:12:12.057Z,12.70
2023-05-05T13:14:40.958Z,16.05
2023-05-05T13:17:09.044Z,10.25
2023-05-05T13:19:42.197Z,12.82
2023-05-05T13:22:10.538Z,15.27
2023-05-05T13:24:50.763Z,45.50
2023-05-05T13:27:20.845Z,17.02
2023-05-05T13:29:48.401Z,11.50
2023-05-05T13:32:16.220Z,6.93
2023-05-05T13:34:44.361Z,42.40
2023-05-05T13:37:11.936Z,8.48
2023-05-05T13:39:39.271Z,39.17
2023-05-05T13:42:07.283Z,5.93
2023-05-05T13:44:35.746Z,17.33
2023-05-05T13:47:03.952Z,14.35
2023-05-05T13:49:32.448Z,8.63
2023-05-05T13:52:01.745Z,5.10
2023-05-05T13:54:29.538Z,4.18
2023-05-05T13:56:58.243Z,5.70
2023-05-05T13:59:26.463Z,8.15
2023-05-05T14:01:54.375Z,12.38
2023-05-05T14:04:22.983Z,9.52
2023-05-05T14:06:54.903Z,67.45
2023-05-05T14:09:22.603Z,49.45
2023-05-05T14:11:50.140Z,11.52
2023-05-05T14:14:18.243Z,12.48
2023-05-05T14:16:49.406Z,6.55
2023-05-05T14:19:17.921Z,6.72
2023-05-05T14:21:45.580Z,4.95
2023-05-05T14:24:13.114Z,7.53
2023-05-05T14:26:40.919Z,6.65
2023-05-05T14:29:08.448Z,5.72
2023-05-05T14:31:37.262Z,7.90
2023-05-05T14:34:05.425Z,14.55
2023-05-05T14:36:33.088Z,9.68
2023-05-05T14:39:00.823Z,12.90
2023-05-05T14:41:28.588Z,7.57
2023-05-05T14:43:57.346Z,4.75
2023-05-05T14:46:26.548Z,19.10
2023-05-05T14:48:54.227Z,8.77
2023-05-05T14:51:22.044Z,5.13
2023-05-05T14:53:50.071Z,33.17
2023-05-05T14:56:18.095Z,25.85
2023-05-05T14:58:47.310Z,29.30
2023-05-05T15:01:16.303Z,8.05
2023-05-05T15:03:44.058Z,8.32
2023-05-05T15:06:11.832Z,13.48
2023-05-05T15:08:39.370Z,5.93
2023-05-05T15:11:07.224Z,7.20
2023-05-05T15:13:36.478Z,5.32
2023-05-05T15:16:04.472Z,7.22
2023-05-05T15:18:31.897Z,11.60
2023-05-05T15:20:59.920Z,26.02
2023-05-05T15:23:27.272Z,13.98
2023-05-05T15:25:55.391Z,27.70
2023-05-05T15:28:22.755Z,5.50
2023-05-05T15:30:50.970Z,8.45
2023-05-05T15:33:18.607Z,6.07
2023-05-05T15:35:46.760Z,4.47
2023-05-05T15:38:14.586Z,17.45
2023-05-05T15:40:45.009Z,7.90
2023-05-05T15:43:13.302Z,12.65
2023-05-05T15:45:41.856Z,3.55
2023-05-05T15:48:09.450Z,13.50
2023-05-05T15:50:37.405Z,10.95
2023-05-05T15:53:05.204Z,4.93
2023-05-05T15:55:33.257Z,5.90
2023-05-05T15:58:01.172Z,7.55
2023-05-05T16:00:29.706Z,8.73
2023-05-05T16:02:57.401Z,8.38
2023-05-05T16:05:25.427Z,6.05
2023-05-05T16:07:53.873Z,5.53
2023-05-05T16:10:22.106Z,6.22
2023-05-05T16:12:49.881Z,4.45
2023-05-05T16:15:17.730Z,18.05
2023-05-05T16:17:45.291Z,5.22
2023-05-05T16:20:13.352Z,7.47
2023-05-05T16:22:41.979Z,9.80
2023-05-05T16:25:10.701Z,5.45
2023-05-05T16:27:38.994Z,20.02
2023-05-05T16:30:08.958Z,4.55
2023-05-05T16:32:36.711Z,8.77
2023-05-05T16:35:07.444Z,6.97
2023-05-05T16:37:35.177Z,9.73
2023-05-05T16:40:05.794Z,12.83
2023-05-05T16:42:33.433Z,11.73
2023-05-05T16:45:01.481Z,8.93
2023-05-05T16:47:29.005Z,21.10
2023-05-05T16:49:56.762Z,12.00
2023-05-05T16:52:24.136Z,17.97
2023-05-05T16:54:55.772Z,6.47
2023-05-05T16:57:23.874Z,5.47
2023-05-05T16:59:51.920Z,9.33
2023-05-05T17:02:19.429Z,7.87
2023-05-05T17:04:47.328Z,13.87
2023-05-05T17:07:15.351Z,8.13
2023-05-05T17:09:43.159Z,21.13
2023-05-05T17:12:11.621Z,9.30
2023-05-05T17:14:40.229Z,13.20
2023-05-05T17:17:07.870Z,9.23
2023-05-05T17:19:36.015Z,12.53
2023-05-05T17:22:03.827Z,35.03
2023-05-05T17:24:31.673Z,11.77
2023-05-05T17:26:59.709Z,9.53
2023-05-05T17:29:27.205Z,9.83
2023-05-05T17:31:55.477Z,14.13
2023-05-05T17:34:23.229Z,10.17
2023-05-05T17:36:50.573Z,16.83
2023-05-05T17:39:18.185Z,11.70
2023-05-05T17:41:45.609Z,7.13
2023-05-05T17:44:13.462Z,10.30
2023-05-05T17:46:40.859Z,6.07
2023-05-05T17:49:08.545Z,11.60
2023-05-05T17:51:36.203Z,7.33
2023-05-05T17:54:05.412Z,6.10
2023-05-05T17:56:35.210Z,7.10
2023-05-05T17:59:03.307Z,7.67
2023-05-05T18:01:30.814Z,17.20
2023-05-05T18:03:58.901Z,11.87
2023-05-05T18:06:27.081Z,17.27
2023-05-05T18:08:54.817Z,12.47
2023-05-05T18:11:26.877Z,20.87
2023-05-05T18:13:56.167Z,55.67
2023-05-05T18:16:23.533Z,80.40
2023-05-05T18:18:51.696Z,540.57
2023-05-05T18:21:19.916Z,452.03
2023-05-05T18:23:47.876Z,196.37
2023-05-05T18:26:15.675Z,980.63
2023-05-05T18:28:43.283Z,572.43
2023-05-05T18:31:11.058Z,392.70
2023-05-05T18:33:39.045Z,211.53
2023-05-05T18:36:08.075Z,43.83
2023-05-05T18:38:36.658Z,511.23
2023-05-05T18:41:04.323Z,155.17
2023-05-05T18:43:32.222Z,329.17
2023-05-05T18:45:59.835Z,81.70
2023-05-05T18:48:27.972Z,357.93
2023-05-05T18:51:00.317Z,368.50
2023-05-05T18:53:29.025Z,97.50
2023-05-05T18:55:57.160Z,71.63
2023-05-05T18:58:25.274Z,59.00
2023-05-05T19:00:52.906Z,62.63
2023-05-05T19:03:22.291Z,54.20
2023-05-05T19:05:49.735Z,105.73
2023-05-05T19:08:17.323Z,84.07
2023-05-05T19:10:45.056Z,99.07
2023-05-05T19:13:13.293Z,102.23
2023-05-05T19:15:40.840Z,110.97
2023-05-05T19:18:08.788Z,61.00
2023-05-05T19:20:38.827Z,101.17
2023-05-05T19:23:07.231Z,388.27
2023-05-05T19:25:34.884Z,44.63
2023-05-05T19:28:02.805Z,67.63
2023-05-05T19:30:30.330Z,173.70
2023-05-05T19:32:58.297Z,59.90
2023-05-05T19:35:26.242Z,41.07
2023-05-05T19:37:56.068Z,60.63
2023-05-05T19:40:23.840Z,137.73
2023-05-05T19:42:52.056Z,79.80
2023-05-05T19:45:19.871Z,73.17
2023-05-05T19:47:47.634Z,115.60
2023-05-05T19:50:18.246Z,51.57
2023-05-05T19:52:45.881Z,125.30
2023-05-05T19:55:14.984Z,56.33
2023-05-05T19:57:42.590Z,60.10
2023-05-05T20:00:11.196Z,73.37
2023-05-05T20:02:39.522Z,82.07
2023-05-05T20:05:07.346Z,298.70
2023-05-05T20:07:35.984Z,129.50
2023-05-05T20:10:03.527Z,213.73
2023-05-05T20:12:31.364Z,116.93
2023-05-05T20:15:02.785Z,37.80
2023-05-05T20:17:30.778Z,25.90
2023-05-05T20:19:58.304Z,20.17
2023-05-05T20:22:26.726Z,20.23
2023-05-05T20:24:54.590Z,33.30
2023-05-05T20:27:22.389Z,36.53
2023-05-05T20:29:50.191Z,17.77
2023-05-05T20:32:20.717Z,15.40
2023-05-05T20:34:50.244Z,19.67
2023-05-05T20:37:28.373Z,19.50
2023-05-05T20:40:02.749Z,19.37
2023-05-05T20:42:33.740Z,16.03
2023-05-05T20:45:04.347Z,11.60
2023-05-05T20:47:35.614Z,16.70
2023-05-05T20:50:05.852Z,24.77
2023-05-05T20:52:36.436Z,12.70
2023-05-05T20:55:07.395Z,10.93
2023-05-05T20:57:36.954Z,11.90
2023-05-05T21:00:06.662Z,18.60
2023-05-05T21:02:37.669Z,39.07
2023-05-05T21:05:07.286Z,47.73
2023-05-05T21:07:36.449Z,32.30
2023-05-05T21:10:05.690Z,23.93
2023-05-05T21:12:36.088Z,18.87
2023-05-05T21:15:05.578Z,13.33
2023-05-05T21:17:34.583Z,25.80
2023-05-05T21:20:02.567Z,12.57
2023-05-05T21:22:31.211Z,14.90
2023-05-05T21:25:19.827Z,17.37
2023-05-05T21:27:48.909Z,14.10
2023-05-05T21:30:16.922Z,16.43
2023-05-05T21:32:45.962Z,17.40
2023-05-05T21:35:15.600Z,11.00
2023-05-05T21:37:46.019Z,11.97
2023-05-05T21:40:16.460Z,18.30
2023-05-05T21:42:44.990Z,15.37
2023-05-05T21:45:13.301Z,11.60
2023-05-05T21:47:42.972Z,15.37
2023-05-05T21:50:12.470Z,12.50
2023-05-05T21:52:41.761Z,11.87
2023-05-05T21:55:11.221Z,17.23
2023-05-05T21:57:39.727Z,15.00
2023-05-05T22:00:09.123Z,14.40
2023-05-05T22:02:44.596Z,14.30
2023-05-05T22:05:12.699Z,16.30
2023-05-05T22:07:40.913Z,10.80
2023-05-05T22:10:09.188Z,12.73
2023-05-05T22:12:37.372Z,12.53
2023-05-05T22:15:05.501Z,14.30
2023-05-05T22:17:33.608Z,16.37
2023-05-05T22:20:01.356Z,20.57
2023-05-05T22:22:29.221Z,37.53
2023-05-05T22:24:56.890Z,23.03
2023-05-05T22:27:25.708Z,24.47
2023-05-05T22:29:53.706Z,25.23
2023-05-05T22:32:21.604Z,16.43
2023-05-05T22:34:49.358Z,13.20
2023-05-05T22:37:17.259Z,14.73
2023-05-05T22:39:44.934Z,12.50
2023-05-05T22:42:13.305Z,14.37
2023-05-05T22:44:41.881Z,12.93
2023-05-05T22:47:09.997Z,15.57
2023-05-05T22:49:37.834Z,11.73
2023-05-05T22:52:06.430Z,12.77
2023-05-05T22:54:34.202Z,15.23
2023-05-05T22:57:02.374Z,15.90
2023-05-05T22:59:29.743Z,15.00
2023-05-05T23:01:57.307Z,12.47
2023-05-05T23:04:24.706Z,10.83
2023-05-05T23:06:52.766Z,9.37
2023-05-05T23:09:19.876Z,12.27
2023-05-05T23:11:47.832Z,14.67
2023-05-05T23:14:16.945Z,11.13
2023-05-05T23:16:44.962Z,16.47
2023-05-05T23:19:13.675Z,13.23
2023-05-05T23:21:51.960Z,16.27
2023-05-05T23:24:20.358Z,16.30
2023-05-05T23:26:48.524Z,12.77
2023-05-05T23:29:15.767Z,14.53
2023-05-05T23:31:43.323Z,30.20
2023-05-05T23:34:11.199Z,21.77
2023-05-05T23:36:38.982Z,28.00
2023-05-05T23:39:06.516Z,22.37
2023-05-05T23:41:34.588Z,14.17
2023-05-05T23:44:02.257Z,23.60
2023-05-05T23:46:30.745Z,23.80
2023-05-05T23:48:58.517Z,13.70
2023-05-05T23:51:27.449Z,16.00
2023-05-05T23:53:56.949Z,14.07
2023-05-05T23:56:25.075Z,14.00
2023-05-05T23:58:53.230Z,12.63
